createdAt,value
2022-10-24T00:00:59.962Z,13.64
2022-10-24T00:03:28.072Z,13.64
2022-10-24T00:05:55.983Z,13.65
2022-10-24T00:08:25.197Z,13.65
2022-10-24T00:10:53.003Z,13.64
2022-10-24T00:13:20.848Z,13.64
2022-10-24T00:15:50.512Z,13.66
2022-10-24T00:18:18.623Z,13.67
2022-10-24T00:20:46.478Z,13.69
2022-10-24T00:23:14.703Z,13.69
2022-10-24T00:25:43.897Z,13.67
2022-10-24T00:28:11.766Z,13.65
2022-10-24T00:30:39.705Z,13.59
2022-10-24T00:33:07.598Z,13.54
2022-10-24T00:35:35.702Z,13.46
2022-10-24T00:38:03.511Z,13.40
2022-10-24T00:40:31.418Z,13.34
2022-10-24T00:43:00.684Z,13.29
2022-10-24T00:45:43.383Z,13.25
2022-10-24T00:48:17.455Z,13.24
2022-10-24T00:50:46.664Z,13.20
2022-10-24T00:53:15.778Z,13.18
2022-10-24T00:55:44.139Z,13.19
2022-10-24T00:58:14.788Z,13.22
2022-10-24T01:00:42.792Z,13.15
2022-10-24T01:03:12.543Z,13.10
2022-10-24T01:05:51.327Z,13.08
2022-10-24T01:08:28.576Z,13.04
2022-10-24T01:11:04.519Z,13.04
2022-10-24T01:13:49.811Z,13.08
2022-10-24T01:16:24.909Z,13.10
2022-10-24T01:19:01.314Z,13.10
2022-10-24T01:21:34.200Z,13.03
2022-10-24T01:24:21.074Z,12.94
2022-10-24T01:27:30.241Z,12.94
2022-10-24T01:30:06.056Z,12.96
2022-10-24T01:32:43.061Z,12.99
2022-10-24T01:35:22.928Z,12.99
2022-10-24T01:37:56.512Z,12.95
2022-10-24T01:40:29.126Z,12.92
2022-10-24T01:43:01.597Z,12.85
2022-10-24T01:45:35.773Z,12.84
2022-10-24T01:48:07.185Z,12.84
2022-10-24T01:50:37.701Z,12.88
2022-10-24T01:53:06.565Z,12.90
2022-10-24T01:55:34.851Z,12.92
2022-10-24T01:58:02.706Z,12.92
2022-10-24T02:00:32.322Z,12.94
2022-10-24T02:03:02.929Z,12.94
2022-10-24T02:05:35.431Z,12.94
2022-10-24T02:08:07.122Z,12.96
2022-10-24T02:10:38.668Z,12.99
2022-10-24T02:13:10.598Z,13.00
2022-10-24T02:15:44.180Z,13.04
2022-10-24T02:18:13.198Z,13.08
2022-10-24T02:20:48.167Z,13.10
2022-10-24T02:23:26.048Z,13.13
2022-10-24T02:25:58.595Z,13.10
2022-10-24T02:28:32.372Z,13.07
2022-10-24T02:31:10.206Z,13.04
2022-10-24T02:33:42.056Z,13.02
2022-10-24T02:36:13.419Z,13.02
2022-10-24T02:38:44.077Z,13.03
2022-10-24T02:41:17.765Z,13.07
2022-10-24T02:43:47.831Z,13.12
2022-10-24T02:46:19.668Z,13.17
2022-10-24T02:48:52.713Z,13.20
2022-10-24T02:51:23.174Z,13.20
2022-10-24T02:53:51.758Z,13.22
2022-10-24T02:56:19.828Z,13.20
2022-10-24T02:58:47.721Z,13.20
2022-10-24T03:01:17.093Z,13.19
2022-10-24T03:03:45.238Z,13.19
2022-10-24T03:06:13.724Z,13.19
2022-10-24T03:08:41.775Z,13.18
2022-10-24T03:11:09.754Z,13.17
2022-10-24T03:13:37.637Z,13.18
2022-10-24T03:16:07.864Z,13.18
2022-10-24T03:18:39.584Z,13.19
2022-10-24T03:21:07.611Z,13.21
2022-10-24T03:23:35.437Z,13.24
2022-10-24T03:26:03.279Z,13.31
2022-10-24T03:28:31.218Z,13.35
2022-10-24T03:30:59.107Z,13.38
2022-10-24T03:33:26.910Z,13.41
2022-10-24T03:35:56.712Z,13.44
2022-10-24T03:38:25.551Z,13.46
2022-10-24T03:40:53.806Z,13.47
2022-10-24T03:43:21.671Z,13.48
2022-10-24T03:45:49.480Z,13.48
2022-10-24T03:48:17.641Z,13.49
2022-10-24T03:50:45.485Z,13.50
2022-10-24T03:53:14.740Z,13.52
2022-10-24T03:55:42.631Z,13.55
2022-10-24T03:58:10.656Z,13.59
2022-10-24T04:00:40.540Z,13.58
2022-10-24T04:03:09.754Z,13.61
2022-10-24T04:08:07.364Z,13.64
2022-10-24T04:10:36.602Z,13.67
2022-10-24T04:13:04.635Z,13.68
2022-10-24T04:15:32.614Z,13.69
2022-10-24T04:18:00.520Z,13.69
2022-10-24T04:20:28.388Z,13.67
2022-10-24T04:22:56.233Z,13.66
2022-10-24T04:25:24.118Z,13.63
2022-10-24T04:27:53.336Z,13.61
2022-10-24T04:30:21.240Z,13.60
2022-10-24T04:32:49.080Z,13.59
2022-10-24T04:35:16.918Z,13.57
2022-10-24T04:37:44.766Z,13.53
2022-10-24T04:40:12.889Z,13.51
2022-10-24T04:42:40.929Z,13.47
2022-10-24T04:45:11.678Z,13.45
2022-10-24T04:47:39.542Z,13.41
2022-10-24T04:50:08.401Z,13.39
2022-10-24T04:52:36.282Z,13.34
2022-10-24T04:55:04.252Z,13.31
2022-10-24T04:57:32.089Z,13.28
2022-10-24T04:59:59.942Z,13.24
2022-10-24T05:02:29.261Z,13.19
2022-10-24T05:04:57.202Z,13.13
2022-10-24T05:07:25.137Z,13.08
2022-10-24T05:09:52.998Z,13.03
2022-10-24T05:12:20.892Z,13.00
2022-10-24T05:14:48.866Z,12.98
2022-10-24T05:17:16.745Z,12.96
2022-10-24T05:19:46.037Z,12.93
2022-10-24T05:22:13.898Z,12.91
2022-10-24T05:24:41.995Z,12.88
2022-10-24T05:27:09.800Z,12.85
2022-10-24T05:29:37.891Z,12.81
2022-10-24T05:32:06.238Z,12.77
2022-10-24T05:34:34.443Z,12.74
2022-10-24T05:37:03.655Z,12.72
2022-10-24T05:39:31.527Z,12.68
2022-10-24T05:41:59.353Z,12.66
2022-10-24T05:44:27.391Z,12.63
2022-10-24T05:46:55.355Z,12.61
2022-10-24T05:49:23.351Z,12.64
2022-10-24T05:51:51.222Z,12.69
2022-10-24T05:54:20.496Z,12.72
2022-10-24T05:56:48.298Z,12.74
2022-10-24T05:59:16.219Z,12.75
2022-10-24T06:01:44.283Z,12.75
2022-10-24T06:04:13.820Z,12.73
2022-10-24T06:06:42.902Z,12.73
2022-10-24T06:09:11.349Z,12.71
2022-10-24T06:11:40.705Z,12.68
2022-10-24T06:14:08.557Z,12.67
2022-10-24T06:16:36.419Z,12.66
2022-10-24T06:19:04.810Z,12.66
2022-10-24T06:21:32.642Z,12.67
2022-10-24T06:24:00.505Z,12.68
2022-10-24T06:26:28.390Z,12.69
2022-10-24T06:28:57.986Z,12.68
2022-10-24T06:31:26.835Z,12.68
2022-10-24T06:33:55.696Z,12.71
2022-10-24T06:36:26.806Z,12.74
2022-10-24T06:38:57.619Z,12.78
2022-10-24T06:41:25.486Z,12.80
2022-10-24T06:43:53.938Z,12.84
2022-10-24T06:46:24.355Z,12.87
2022-10-24T06:48:54.984Z,12.88
2022-10-24T06:51:23.317Z,12.88
2022-10-24T06:53:51.764Z,12.88
2022-10-24T06:56:19.611Z,12.88
2022-10-24T06:58:47.751Z,12.84
2022-10-24T07:01:19.097Z,12.81
2022-10-24T07:03:49.175Z,12.81
2022-10-24T07:06:19.767Z,12.86
2022-10-24T07:08:48.586Z,12.89
2022-10-24T07:11:16.611Z,12.92
2022-10-24T07:13:44.450Z,12.94
2022-10-24T07:16:12.705Z,12.96
2022-10-24T07:18:40.542Z,12.99
2022-10-24T07:21:15.223Z,12.98
2022-10-24T07:23:45.216Z,12.97
2022-10-24T07:26:15.971Z,12.98
2022-10-24T07:28:46.564Z,13.02
2022-10-24T07:31:15.211Z,13.05
2022-10-24T07:33:43.312Z,13.10
2022-10-24T07:36:17.967Z,13.13
2022-10-24T07:38:45.926Z,13.17
2022-10-24T07:41:13.859Z,13.21
2022-10-24T07:43:41.929Z,13.25
2022-10-24T07:46:10.052Z,13.30
2022-10-24T07:48:38.104Z,13.32
2022-10-24T07:51:07.325Z,13.29
2022-10-24T07:53:37.354Z,13.24
2022-10-24T07:56:09.369Z,13.18
2022-10-24T07:58:38.445Z,13.15
2022-10-24T08:01:07.821Z,13.13
2022-10-24T08:03:36.377Z,13.15
2022-10-24T08:06:06.511Z,13.19
2022-10-24T08:08:37.473Z,13.25
2022-10-24T08:11:10.130Z,13.32
2022-10-24T08:13:38.016Z,13.42
2022-10-24T08:16:10.944Z,13.50
2022-10-24T08:18:40.159Z,13.57
2022-10-24T08:21:13.671Z,13.63
2022-10-24T08:23:44.068Z,13.67
2022-10-24T08:26:18.696Z,13.70
2022-10-24T08:28:49.330Z,13.73
2022-10-24T08:31:18.593Z,13.80
2022-10-24T08:33:46.995Z,13.84
2022-10-24T08:36:20.820Z,13.86
2022-10-24T08:38:48.635Z,13.87
2022-10-24T08:41:26.250Z,13.90
2022-10-24T08:43:57.126Z,13.95
2022-10-24T08:46:38.135Z,13.97
2022-10-24T08:49:17.089Z,14.01
2022-10-24T08:51:50.049Z,14.05
2022-10-24T08:54:24.414Z,14.06
2022-10-24T08:56:57.957Z,14.11
2022-10-24T08:59:28.682Z,14.17
2022-10-24T09:02:03.398Z,14.24
2022-10-24T09:04:44.217Z,14.29
2022-10-24T09:07:19.125Z,14.37
2022-10-24T09:09:49.738Z,14.41
2022-10-24T09:12:21.114Z,14.43
2022-10-24T09:14:55.735Z,14.47
2022-10-24T09:17:26.244Z,14.60
2022-10-24T09:19:56.367Z,14.79
2022-10-24T09:22:31.451Z,14.94
2022-10-24T09:25:04.184Z,14.97
2022-10-24T09:27:35.887Z,14.97
2022-10-24T09:30:05.472Z,14.96
2022-10-24T09:32:36.276Z,15.02
2022-10-24T09:35:07.054Z,15.18
2022-10-24T09:37:43.943Z,15.29
2022-10-24T09:40:22.376Z,15.35
2022-10-24T09:42:58.973Z,15.26
2022-10-24T09:45:40.306Z,15.11
2022-10-24T09:48:19.172Z,14.88
2022-10-24T09:50:49.552Z,14.62
2022-10-24T09:53:27.402Z,14.39
2022-10-24T09:55:58.918Z,14.24
2022-10-24T09:58:32.884Z,14.20
2022-10-24T10:01:09.284Z,14.14
2022-10-24T10:03:37.219Z,14.07
2022-10-24T10:06:15.489Z,13.98
2022-10-24T10:08:51.515Z,13.93
2022-10-24T10:11:27.610Z,13.90
2022-10-24T10:14:00.110Z,13.89
2022-10-24T10:16:30.474Z,13.94
2022-10-24T10:19:04.234Z,13.96
2022-10-24T10:21:54.365Z,13.96
2022-10-24T10:24:27.520Z,13.98
2022-10-24T10:26:55.405Z,14.07
2022-10-24T10:29:28.541Z,14.14
2022-10-24T10:32:07.076Z,14.15
2022-10-24T10:34:39.987Z,14.15
2022-10-24T10:37:28.360Z,14.19
2022-10-24T10:40:22.176Z,14.28
2022-10-24T10:43:01.119Z,14.35
2022-10-24T10:45:40.037Z,14.45
2022-10-24T10:48:24.483Z,14.44
2022-10-24T10:50:57.852Z,14.46
2022-10-24T10:53:38.440Z,14.45
2022-10-24T10:56:21.810Z,14.52
2022-10-24T10:58:59.478Z,14.67
2022-10-24T11:01:38.575Z,14.79
2022-10-24T11:04:14.876Z,14.94
2022-10-24T11:06:51.378Z,15.03
2022-10-24T11:09:26.905Z,15.05
2022-10-24T11:12:01.303Z,15.02
2022-10-24T11:14:35.064Z,14.92
2022-10-24T11:17:14.161Z,14.87
2022-10-24T11:19:47.643Z,14.87
2022-10-24T11:22:21.997Z,14.83
2022-10-24T11:24:56.777Z,14.90
2022-10-24T11:27:29.391Z,15.05
2022-10-24T11:30:03.686Z,15.24
2022-10-24T11:32:39.458Z,15.43
2022-10-24T11:35:19.003Z,15.57
2022-10-24T11:37:50.921Z,15.62
2022-10-24T11:40:22.589Z,15.53
2022-10-24T11:42:56.987Z,15.47
2022-10-24T11:45:29.186Z,15.47
2022-10-24T11:48:13.655Z,15.45
2022-10-24T11:50:49.330Z,15.37
2022-10-24T11:53:39.372Z,15.27
2022-10-24T11:56:15.366Z,15.14
2022-10-24T11:58:53.590Z,15.05
2022-10-24T12:01:42.257Z,14.98
2022-10-24T12:04:36.873Z,14.89
2022-10-24T12:07:38.727Z,14.83
2022-10-24T12:10:23.928Z,14.76
2022-10-24T12:13:24.652Z,14.73
2022-10-24T12:16:00.713Z,14.70
2022-10-24T12:18:33.239Z,14.65
2022-10-24T12:21:06.840Z,14.67
2022-10-24T12:23:35.226Z,14.69
2022-10-24T12:26:11.155Z,14.73
2022-10-24T12:28:39.657Z,14.77
2022-10-24T12:31:25.571Z,14.95
2022-10-24T12:34:27.618Z,15.10
2022-10-24T12:37:12.417Z,15.32
2022-10-24T12:39:45.799Z,15.42
2022-10-24T12:42:17.542Z,15.57
2022-10-24T12:44:51.593Z,15.71
2022-10-24T12:47:41.704Z,15.67
2022-10-24T12:50:55.165Z,15.62
2022-10-24T12:53:42.153Z,15.76
2022-10-24T12:58:58.178Z,16.11
2022-10-24T13:01:33.182Z,16.30
2022-10-24T13:04:32.219Z,16.55
2022-10-24T13:07:27.392Z,16.56
2022-10-24T13:10:22.184Z,16.55
2022-10-24T13:13:36.879Z,16.61
2022-10-24T13:16:16.809Z,16.73
2022-10-24T13:18:52.419Z,16.82
2022-10-24T13:21:27.876Z,16.98
2022-10-24T13:24:12.068Z,17.15
2022-10-24T13:26:46.924Z,17.18
2022-10-24T13:32:35.882Z,17.05
2022-10-24T13:35:06.899Z,16.86
2022-10-24T13:37:41.841Z,17.05
2022-10-24T13:40:14.545Z,17.30
2022-10-24T13:42:50.643Z,17.44
2022-10-24T13:45:26.040Z,17.57
2022-10-24T13:48:03.954Z,17.61
2022-10-24T13:50:34.863Z,17.58
2022-10-24T13:53:15.858Z,17.48
2022-10-24T13:55:47.835Z,17.47
2022-10-24T13:58:20.207Z,17.43
2022-10-24T14:00:54.858Z,17.36
2022-10-24T14:03:27.989Z,17.51
2022-10-24T14:05:59.776Z,17.52
2022-10-24T14:08:31.059Z,17.36
2022-10-24T14:11:03.907Z,17.10
2022-10-24T14:13:35.696Z,17.11
2022-10-24T14:16:06.491Z,17.26
2022-10-24T14:18:37.046Z,17.10
2022-10-24T14:21:05.829Z,16.85
2022-10-24T14:23:35.434Z,16.57
2022-10-24T14:26:07.021Z,16.32
2022-10-24T14:28:38.391Z,16.34
2022-10-24T14:31:08.328Z,16.57
2022-10-24T14:33:48.035Z,16.55
2022-10-24T14:36:16.715Z,16.53
2022-10-24T14:38:45.148Z,16.66
2022-10-24T14:41:13.393Z,16.90
2022-10-24T14:43:44.950Z,17.00
2022-10-24T14:46:36.440Z,17.12
2022-10-24T14:49:29.483Z,17.24
2022-10-24T14:52:00.794Z,17.28
2022-10-24T14:54:33.826Z,17.24
2022-10-24T14:57:03.726Z,17.15
2022-10-24T14:59:35.335Z,17.22
2022-10-24T15:02:07.618Z,17.17
2022-10-24T15:04:43.116Z,17.04
2022-10-24T15:07:20.925Z,16.97
2022-10-24T15:09:54.050Z,16.90
2022-10-24T15:12:28.774Z,16.87
2022-10-24T15:15:22.555Z,16.84
2022-10-24T15:17:51.785Z,16.80
2022-10-24T15:20:23.280Z,16.64
2022-10-24T15:22:52.758Z,16.51
2022-10-24T15:25:24.399Z,16.42
2022-10-24T15:27:59.132Z,16.32
2022-10-24T15:30:28.594Z,16.20
2022-10-24T15:32:58.079Z,16.07
2022-10-24T15:35:27.910Z,15.92
2022-10-24T15:37:57.680Z,15.80
2022-10-24T15:40:28.460Z,15.76
2022-10-24T15:42:56.535Z,15.82
2022-10-24T15:45:28.033Z,15.82
2022-10-24T15:47:58.769Z,15.74
2022-10-24T15:50:28.066Z,15.67
2022-10-24T15:53:00.662Z,15.63
2022-10-24T15:55:30.867Z,15.62
2022-10-24T15:58:03.150Z,15.49
2022-10-24T16:00:31.133Z,15.26
2022-10-24T16:03:04.409Z,15.10
2022-10-24T16:05:39.996Z,15.05
2022-10-24T16:08:15.910Z,15.06
2022-10-24T16:10:47.000Z,15.09
2022-10-24T16:13:15.626Z,15.08
2022-10-24T16:15:44.656Z,15.03
2022-10-24T16:18:13.055Z,14.96
2022-10-24T16:20:42.911Z,14.89
2022-10-24T16:23:15.831Z,14.84
2022-10-24T16:25:44.107Z,14.80
2022-10-24T16:28:12.347Z,14.76
2022-10-24T16:30:41.830Z,14.75
2022-10-24T16:33:09.741Z,14.75
2022-10-24T16:35:39.366Z,14.75
2022-10-24T16:38:10.620Z,14.72
2022-10-24T16:43:16.625Z,14.67
2022-10-24T16:45:47.101Z,14.67
2022-10-24T16:48:16.659Z,14.67
2022-10-24T16:50:46.434Z,14.61
2022-10-24T16:53:18.338Z,14.49
2022-10-24T16:55:48.959Z,14.34
2022-10-24T16:58:17.183Z,14.18
2022-10-24T17:00:49.265Z,14.08
2022-10-24T17:03:20.802Z,13.97
2022-10-24T17:05:50.900Z,13.89
2022-10-24T17:08:20.248Z,13.86
2022-10-24T17:10:51.069Z,13.84
2022-10-24T17:13:18.906Z,13.81
2022-10-24T17:15:46.757Z,13.76
2022-10-24T17:18:14.870Z,13.72
2022-10-24T17:20:44.460Z,13.66
2022-10-24T17:23:14.177Z,13.63
2022-10-24T17:25:46.729Z,13.61
2022-10-24T17:28:16.787Z,13.62
2022-10-24T17:30:45.369Z,13.64
2022-10-24T17:33:13.976Z,13.64
2022-10-24T17:35:46.859Z,13.64
2022-10-24T17:38:32.679Z,13.65
2022-10-24T17:41:11.094Z,13.67
2022-10-24T17:43:39.284Z,13.70
2022-10-24T17:46:12.307Z,13.75
2022-10-24T17:48:40.195Z,13.77
2022-10-24T17:51:10.683Z,13.80
2022-10-24T17:53:38.833Z,13.80
2022-10-24T17:56:09.914Z,13.78
2022-10-24T17:58:37.766Z,13.77
2022-10-24T18:01:08.097Z,13.78
2022-10-24T18:03:36.016Z,13.75
2022-10-24T18:06:06.432Z,13.71
2022-10-24T18:08:34.891Z,13.70
2022-10-24T18:11:04.038Z,13.69
2022-10-24T18:13:33.342Z,13.67
2022-10-24T18:16:07.436Z,13.65
2022-10-24T18:18:35.295Z,13.63
2022-10-24T18:21:07.942Z,13.61
2022-10-24T18:23:36.011Z,13.62
2022-10-24T18:26:10.537Z,13.61
2022-10-24T18:28:42.353Z,13.63
2022-10-24T18:31:11.735Z,13.65
2022-10-24T18:33:40.483Z,13.65
2022-10-24T18:36:10.711Z,13.62
2022-10-24T18:38:39.884Z,13.60
2022-10-24T18:41:27.048Z,13.59
2022-10-24T18:43:57.776Z,13.59
2022-10-24T18:46:26.605Z,13.60
2022-10-24T18:48:56.484Z,13.60
2022-10-24T18:51:33.562Z,13.61
2022-10-24T18:54:06.383Z,13.66
2022-10-24T18:56:35.066Z,13.67
2022-10-24T18:59:10.261Z,13.70
2022-10-24T19:01:48.746Z,13.73
2022-10-24T19:04:22.872Z,13.76
2022-10-24T19:06:53.860Z,13.76
2022-10-24T19:09:23.891Z,13.75
2022-10-24T19:11:54.383Z,13.74
2022-10-24T19:14:25.136Z,13.77
2022-10-24T19:16:53.895Z,13.79
2022-10-24T19:19:29.891Z,13.83
2022-10-24T19:22:03.170Z,13.83
2022-10-24T19:24:31.589Z,13.84
2022-10-24T19:26:59.470Z,13.86
2022-10-24T19:29:28.870Z,13.86
2022-10-24T19:31:56.721Z,13.85
2022-10-24T19:34:24.566Z,13.82
2022-10-24T19:36:52.809Z,13.80
2022-10-24T19:39:22.891Z,13.78
2022-10-24T19:41:50.732Z,13.74
2022-10-24T19:44:20.739Z,13.70
2022-10-24T19:46:50.034Z,13.67
2022-10-24T19:49:17.879Z,13.62
2022-10-24T19:51:45.753Z,13.55
2022-10-24T19:54:13.817Z,13.53
2022-10-24T19:56:41.723Z,13.49
2022-10-24T19:59:12.252Z,13.46
2022-10-24T20:01:40.303Z,13.45
2022-10-24T20:04:12.524Z,13.44
2022-10-24T20:06:40.432Z,13.46
2022-10-24T20:09:12.165Z,13.48
2022-10-24T20:11:40.043Z,13.47
2022-10-24T20:14:07.989Z,13.47
2022-10-24T20:16:35.832Z,13.47
2022-10-24T20:19:03.900Z,13.45
2022-10-24T20:21:35.300Z,13.43
2022-10-24T20:24:03.183Z,13.42
2022-10-24T20:26:33.056Z,13.42
2022-10-24T20:29:01.000Z,13.42
2022-10-24T20:31:31.510Z,13.41
2022-10-24T20:34:07.047Z,13.43
2022-10-24T20:36:38.843Z,13.42
2022-10-24T20:39:07.715Z,13.39
2022-10-24T20:41:36.170Z,13.36
2022-10-24T20:44:12.315Z,13.36
2022-10-24T20:46:42.632Z,13.36
2022-10-24T20:49:12.135Z,13.33
2022-10-24T20:51:44.217Z,13.28
2022-10-24T20:54:12.100Z,13.24
2022-10-24T20:56:42.603Z,13.28
2022-10-24T20:59:13.151Z,13.31
2022-10-24T21:01:41.316Z,13.36
2022-10-24T21:04:09.399Z,13.41
2022-10-24T21:06:39.952Z,13.44
2022-10-24T21:09:09.206Z,13.47
2022-10-24T21:11:38.513Z,13.48
2022-10-24T21:14:08.659Z,13.46
2022-10-24T21:16:36.749Z,13.47
2022-10-24T21:19:05.138Z,13.45
2022-10-24T21:21:33.058Z,13.46
2022-10-24T21:24:05.742Z,13.46
2022-10-24T21:26:38.313Z,13.46
2022-10-24T21:29:31.745Z,13.46
2022-10-24T21:31:54.900Z,13.47
2022-10-24T21:34:23.045Z,13.46
2022-10-24T21:36:51.135Z,13.43
2022-10-24T21:39:19.193Z,13.41
2022-10-24T21:41:48.368Z,13.39
2022-10-24T21:44:16.221Z,13.37
2022-10-24T21:46:44.388Z,13.36
2022-10-24T21:49:13.380Z,13.37
2022-10-24T21:51:42.782Z,13.36
2022-10-24T21:54:23.244Z,13.36
2022-10-24T21:56:52.441Z,13.33
2022-10-24T21:59:23.018Z,13.32
2022-10-24T22:01:52.584Z,13.29
2022-10-24T22:04:21.492Z,13.26
2022-10-24T22:06:50.080Z,13.25
2022-10-24T22:09:22.717Z,13.22
2022-10-24T22:11:57.920Z,13.19
2022-10-24T22:14:34.925Z,13.20
2022-10-24T22:17:02.745Z,13.16
2022-10-24T22:19:30.918Z,13.13
2022-10-24T22:21:58.769Z,13.10
2022-10-24T22:24:26.635Z,13.10
2022-10-24T22:26:55.917Z,13.12
2022-10-24T22:29:27.777Z,13.12
2022-10-24T22:31:56.294Z,13.16
2022-10-24T22:34:26.189Z,13.20
2022-10-24T22:37:05.290Z,13.24
2022-10-24T22:39:33.781Z,13.25
2022-10-24T22:42:06.081Z,13.27
2022-10-24T22:44:34.670Z,13.27
2022-10-24T22:47:15.988Z,13.27
2022-10-24T22:49:55.152Z,13.28
2022-10-24T22:52:23.586Z,13.28
2022-10-24T22:54:54.310Z,13.29
2022-10-24T22:57:24.161Z,13.28
2022-10-24T22:59:54.565Z,13.30
2022-10-24T23:02:31.251Z,13.32
2022-10-24T23:05:07.539Z,13.31
2022-10-24T23:07:45.433Z,13.31
2022-10-24T23:10:18.613Z,13.31
2022-10-24T23:12:50.450Z,13.29
2022-10-24T23:15:20.941Z,13.25
2022-10-24T23:17:52.169Z,13.23
2022-10-24T23:20:43.512Z,13.20
2022-10-24T23:23:28.083Z,13.16
2022-10-24T23:26:04.188Z,13.12
2022-10-24T23:28:40.497Z,13.06
2022-10-24T23:31:09.071Z,13.07
2022-10-24T23:33:37.425Z,13.05
2022-10-24T23:36:05.918Z,13.03
2022-10-24T23:38:36.910Z,12.99
2022-10-24T23:41:05.278Z,12.96
2022-10-24T23:43:35.203Z,12.97
2022-10-24T23:46:10.621Z,12.99
2022-10-24T23:48:54.576Z,13.00
2022-10-24T23:51:31.035Z,13.02
2022-10-24T23:54:02.013Z,13.05
2022-10-24T23:56:33.385Z,13.05
2022-10-24T23:59:02.598Z,13.03
